Time;durP1;ratioP1;P1;durP2;ratioP2;P2;SDS_P1;SDS_P2;PMS_P1;PMS_P2;Temp;Humidity;BMP_temperature;BMP_pressure;BME280_temperature;BME280_humidity;BME280_pressure;Samples;Min_cycle;Max_cycle;Signal;HPM_P1;HPM_P2
2021/10/16 00:01:20;;;;;;;45.27;5.50;;;7.30;99.90;;;;;;5031061;28;20926;-84
2021/10/16 00:03:48;;;;;;;48.90;5.93;;;7.30;99.90;;;;;;5050764;28;20472;-86
2021/10/16 00:06:16;;;;;;;51.50;6.57;;;7.30;99.90;;;;;;5052636;28;20448;-85
2021/10/16 00:08:43;;;;;;;48.87;6.70;;;7.30;99.90;;;;;;5053649;28;20544;-86
2021/10/16 00:11:11;;;;;;;47.53;6.23;;;7.20;99.90;;;;;;5058554;28;20485;-87
2021/10/16 00:13:38;;;;;;;46.60;6.00;;;7.20;99.90;;;;;;5038008;28;20578;-85
2021/10/16 00:16:05;;;;;;;46.50;5.93;;;7.20;99.90;;;;;;5032988;28;20487;-85
2021/10/16 00:18:32;;;;;;;45.33;5.80;;;7.20;99.90;;;;;;5037629;28;20451;-85
2021/10/16 00:21:01;;;;;;;46.80;6.00;;;7.20;99.90;;;;;;5046434;28;20500;-85
2021/10/16 00:23:28;;;;;;;46.60;6.20;;;7.10;99.90;;;;;;5041614;28;20528;-82
2021/10/16 00:25:55;;;;;;;53.43;6.40;;;7.10;99.90;;;;;;5050086;28;20453;-85
2021/10/16 00:28:23;;;;;;;47.50;5.43;;;7.10;99.90;;;;;;5037854;28;20483;-83
2021/10/16 00:30:49;;;;;;;46.73;5.57;;;7.10;99.90;;;;;;5045703;28;20480;-84
2021/10/16 00:33:17;;;;;;;46.53;5.70;;;7.10;99.90;;;;;;5046992;28;20462;-84
2021/10/16 00:35:44;;;;;;;52.80;6.30;;;7.10;99.90;;;;;;5045882;28;20493;-84
2021/10/16 00:38:12;;;;;;;49.90;5.67;;;7.00;99.90;;;;;;5042471;28;20538;-84
2021/10/16 00:40:39;;;;;;;47.57;5.37;;;7.10;99.90;;;;;;5056966;28;20477;-84
2021/10/16 00:43:06;;;;;;;44.73;5.10;;;7.10;99.90;;;;;;5056505;28;20462;-84
2021/10/16 00:45:33;;;;;;;48.30;5.57;;;7.00;99.90;;;;;;5056920;28;20943;-84
2021/10/16 00:48:00;;;;;;;47.53;6.03;;;7.10;99.90;;;;;;5049507;28;20456;-85
2021/10/16 00:50:28;;;;;;;48.10;6.10;;;7.00;99.90;;;;;;5052661;28;20477;-86
2021/10/16 00:52:55;;;;;;;45.57;5.80;;;7.00;99.90;;;;;;5028560;28;20489;-85
2021/10/16 00:55:24;;;;;;;48.43;6.40;;;7.00;99.90;;;;;;5016330;28;20482;-85
2021/10/16 00:57:53;;;;;;;47.63;5.60;;;7.00;99.90;;;;;;5016663;28;20454;-83
2021/10/16 01:00:20;;;;;;;47.03;6.17;;;7.10;99.90;;;;;;5035121;28;20480;-84
2021/10/16 01:02:47;;;;;;;46.93;6.30;;;7.00;99.90;;;;;;5042898;28;20511;-84
2021/10/16 01:05:14;;;;;;;45.40;6.10;;;7.00;99.90;;;;;;5036511;28;20519;-85
2021/10/16 01:07:41;;;;;;;44.80;5.10;;;7.00;99.90;;;;;;5041635;28;20467;-84
2021/10/16 01:10:11;;;;;;;48.57;6.37;;;7.00;99.90;;;;;;5045466;28;20487;-85
2021/10/16 01:12:40;;;;;;;45.43;5.70;;;7.00;99.90;;;;;;5047634;28;20520;-85
2021/10/16 01:15:09;;;;;;;49.23;6.13;;;7.00;99.90;;;;;;5045800;28;20484;-85
2021/10/16 01:17:38;;;;;;;48.00;5.37;;;6.90;99.90;;;;;;5032227;28;20476;-85
2021/10/16 01:20:08;;;;;;;49.23;6.53;;;6.90;99.90;;;;;;5042131;28;20477;-84
2021/10/16 01:22:39;;;;;;;51.67;5.97;;;6.90;99.90;;;;;;5041622;28;20490;-84
2021/10/16 01:25:08;;;;;;;49.63;6.00;;;6.90;99.90;;;;;;5051908;28;20543;-84
2021/10/16 01:27:37;;;;;;;47.30;6.37;;;6.90;99.90;;;;;;5035556;28;20457;-84
2021/10/16 01:30:05;;;;;;;50.87;5.70;;;6.80;99.90;;;;;;5030510;28;20482;-84
2021/10/16 01:32:32;;;;;;;47.90;6.10;;;6.80;99.90;;;;;;5030188;28;20544;-84
2021/10/16 01:34:59;;;;;;;47.43;5.90;;;6.80;99.90;;;;;;5039313;28;20522;-84
2021/10/16 01:37:25;;;;;;;48.40;6.47;;;6.70;99.90;;;;;;5032932;28;20444;-85
2021/10/16 01:39:54;;;;;;;45.93;5.73;;;6.70;99.90;;;;;;5032882;28;20491;-85
2021/10/16 01:42:21;;;;;;;53.50;5.63;;;6.80;99.90;;;;;;5029652;28;20883;-85
2021/10/16 01:44:47;;;;;;;46.77;5.53;;;6.70;99.90;;;;;;5038508;28;20457;-86
2021/10/16 01:47:14;;;;;;;50.43;5.70;;;6.80;99.90;;;;;;5039009;28;20453;-85
2021/10/16 01:49:41;;;;;;;46.70;5.40;;;6.80;99.90;;;;;;5032134;28;20550;-84
2021/10/16 01:52:08;;;;;;;48.70;6.67;;;6.70;99.90;;;;;;5041407;28;20453;-85
2021/10/16 01:54:35;;;;;;;49.53;5.27;;;6.70;99.90;;;;;;5033644;28;20485;-85
2021/10/16 01:57:03;;;;;;;50.63;6.20;;;6.70;99.90;;;;;;5048286;28;20487;-85
2021/10/16 01:59:30;;;;;;;49.10;6.00;;;6.70;99.90;;;;;;5042030;28;20524;-85
2021/10/16 02:01:57;;;;;;;49.27;5.63;;;6.70;99.90;;;;;;5044933;28;20468;-85
2021/10/16 02:04:24;;;;;;;47.57;5.97;;;6.70;99.90;;;;;;5029062;28;20461;-85
2021/10/16 02:06:50;;;;;;;47.50;5.23;;;6.70;99.90;;;;;;5038785;28;20457;-84
2021/10/16 02:09:17;;;;;;;46.43;4.77;;;6.70;99.90;;;;;;5030837;28;20770;-84
2021/10/16 02:11:44;;;;;;;48.90;5.00;;;6.60;99.90;;;;;;5039033;28;20547;-85
2021/10/16 02:14:12;;;;;;;45.73;5.40;;;6.50;99.90;;;;;;5051716;28;20512;-83
2021/10/16 02:16:39;;;;;;;47.20;5.17;;;6.50;99.90;;;;;;5050168;28;20490;-85
2021/10/16 02:19:06;;;;;;;47.57;5.57;;;6.60;99.90;;;;;;5048844;28;20451;-84
2021/10/16 02:21:33;;;;;;;51.17;6.23;;;6.60;99.90;;;;;;5048868;28;20461;-85
2021/10/16 02:24:00;;;;;;;47.20;5.30;;;6.60;99.90;;;;;;5049109;28;20512;-84
2021/10/16 02:26:26;;;;;;;48.10;6.37;;;6.50;99.90;;;;;;5047594;28;20710;-86
2021/10/16 02:28:53;;;;;;;47.20;5.87;;;6.50;99.90;;;;;;5044704;28;20484;-84
2021/10/16 02:31:22;;;;;;;49.27;6.20;;;6.50;99.90;;;;;;5050072;28;20504;-86
2021/10/16 02:33:50;;;;;;;51.10;6.73;;;6.60;99.90;;;;;;5037448;28;20485;-84
2021/10/16 02:36:17;;;;;;;46.43;5.70;;;6.60;99.90;;;;;;5039554;28;20491;-83
2021/10/16 02:38:44;;;;;;;46.93;5.03;;;6.50;99.90;;;;;;5034157;28;20441;-84
2021/10/16 02:41:11;;;;;;;47.93;5.50;;;6.60;99.90;;;;;;5029574;28;20493;-84
2021/10/16 02:43:39;;;;;;;49.20;5.87;;;6.50;99.90;;;;;;5031197;28;20477;-84
2021/10/16 02:46:06;;;;;;;49.13;5.23;;;6.50;99.90;;;;;;5027681;28;20505;-85
2021/10/16 02:48:34;;;;;;;49.90;6.30;;;6.50;99.90;;;;;;5022243;28;20445;-83
2021/10/16 02:51:01;;;;;;;50.70;5.87;;;6.50;99.90;;;;;;5036317;28;20475;-83
2021/10/16 02:53:28;;;;;;;47.43;6.00;;;6.60;99.90;;;;;;5040970;28;20540;-82
2021/10/16 02:55:55;;;;;;;45.30;5.70;;;6.60;99.90;;;;;;5038131;28;20552;-83
2021/10/16 02:58:22;;;;;;;47.60;5.10;;;6.60;99.90;;;;;;5030703;28;20449;-83
2021/10/16 03:00:48;;;;;;;47.20;4.90;;;6.60;99.90;;;;;;5028296;28;20652;-84
2021/10/16 03:03:15;;;;;;;44.77;5.30;;;6.70;99.90;;;;;;5025464;28;20453;-83
2021/10/16 03:05:43;;;;;;;47.50;5.43;;;6.70;99.90;;;;;;5024719;28;20497;-84
2021/10/16 03:08:10;;;;;;;44.63;5.00;;;6.70;99.90;;;;;;5037209;28;20451;-84
2021/10/16 03:10:37;;;;;;;46.67;5.07;;;6.70;99.90;;;;;;5036783;28;20848;-84
2021/10/16 03:13:04;;;;;;;48.57;5.70;;;6.60;99.90;;;;;;5016927;28;20452;-83
2021/10/16 03:15:30;;;;;;;47.60;4.67;;;6.70;99.90;;;;;;5034342;28;21048;-84
2021/10/16 03:17:58;;;;;;;47.70;5.10;;;6.60;99.90;;;;;;5021272;28;20469;-84
2021/10/16 03:20:25;;;;;;;51.67;5.90;;;6.70;99.90;;;;;;5038513;28;20468;-84
2021/10/16 03:22:53;;;;;;;45.97;5.57;;;6.70;99.90;;;;;;5038048;28;20544;-84
2021/10/16 03:25:19;;;;;;;48.13;6.07;;;6.70;99.90;;;;;;5034871;28;20468;-83
2021/10/16 03:27:46;;;;;;;45.67;5.17;;;6.80;99.90;;;;;;5040831;28;20506;-83
2021/10/16 03:30:13;;;;;;;46.70;5.40;;;6.80;99.90;;;;;;5027792;28;20529;-82
2021/10/16 03:32:40;;;;;;;49.00;5.70;;;6.80;99.90;;;;;;5024512;28;20529;-83
2021/10/16 03:35:07;;;;;;;48.37;5.97;;;6.90;99.90;;;;;;5019912;28;20452;-83
2021/10/16 03:37:34;;;;;;;46.83;4.70;;;6.90;99.90;;;;;;5020008;28;20990;-84
2021/10/16 03:40:02;;;;;;;50.77;5.70;;;7.00;99.90;;;;;;5024300;28;20527;-82
2021/10/16 03:42:29;;;;;;;43.43;5.20;;;6.90;99.90;;;;;;5033021;28;20535;-82
2021/10/16 03:44:56;;;;;;;44.40;5.10;;;6.90;99.90;;;;;;5032750;28;20453;-81
2021/10/16 03:47:23;;;;;;;51.70;5.70;;;6.90;99.90;;;;;;5026311;28;20531;-82
2021/10/16 03:49:50;;;;;;;44.83;5.27;;;6.90;99.90;;;;;;5028769;28;20475;-81
2021/10/16 03:52:17;;;;;;;44.47;5.23;;;7.00;99.90;;;;;;5037917;28;20441;-82
2021/10/16 03:54:43;;;;;;;44.47;4.97;;;7.00;99.90;;;;;;5032208;28;20456;-81
2021/10/16 03:57:12;;;;;;;52.13;5.20;;;7.00;99.90;;;;;;5031222;28;20566;-81
2021/10/16 03:59:42;;;;;;;48.27;5.60;;;7.00;99.90;;;;;;5029015;28;20457;-83
2021/10/16 04:02:09;;;;;;;40.67;4.80;;;7.00;99.90;;;;;;5044487;28;20476;-82
2021/10/16 04:04:36;;;;;;;42.60;5.47;;;7.00;99.90;;;;;;5055025;28;20479;-82
2021/10/16 04:07:02;;;;;;;43.00;5.10;;;7.10;99.90;;;;;;5046485;28;20454;-83
2021/10/16 04:09:29;;;;;;;41.60;4.93;;;7.10;99.90;;;;;;5052005;28;20464;-83
2021/10/16 04:11:56;;;;;;;46.83;5.00;;;7.00;99.90;;;;;;5043985;28;20519;-81
2021/10/16 04:14:24;;;;;;;45.10;5.23;;;7.00;99.90;;;;;;5049328;28;20464;-82
2021/10/16 04:16:51;;;;;;;45.90;5.57;;;6.90;99.90;;;;;;5060498;28;20504;-82
2021/10/16 04:19:18;;;;;;;40.37;4.93;;;6.90;99.90;;;;;;5065880;28;20518;-82
2021/10/16 04:21:45;;;;;;;48.33;5.70;;;6.90;99.90;;;;;;5049402;28;20546;-82
2021/10/16 04:24:12;;;;;;;43.97;4.80;;;6.80;99.90;;;;;;5048198;28;20919;-83
2021/10/16 04:26:39;;;;;;;46.13;5.37;;;6.80;99.90;;;;;;5050181;28;21006;-82
2021/10/16 04:29:05;;;;;;;43.43;5.90;;;6.70;99.90;;;;;;5025314;28;20526;-82
2021/10/16 04:31:34;;;;;;;41.67;5.13;;;6.70;99.90;;;;;;5024988;28;20902;-82
2021/10/16 04:34:02;;;;;;;41.40;4.93;;;6.70;99.90;;;;;;5039977;28;20543;-82
2021/10/16 04:36:29;;;;;;;40.23;5.30;;;6.70;99.90;;;;;;5039266;28;20496;-82
2021/10/16 04:38:56;;;;;;;42.77;5.83;;;6.60;99.90;;;;;;5042809;28;20469;-82
2021/10/16 04:41:23;;;;;;;44.63;5.60;;;6.60;99.90;;;;;;5086494;22;20505;-80
2021/10/16 04:43:50;;;;;;;42.70;5.67;;;6.60;99.90;;;;;;5070686;28;20455;-79
2021/10/16 04:46:18;;;;;;;44.83;5.63;;;6.60;99.90;;;;;;5074670;28;20856;-78
2021/10/16 04:48:46;;;;;;;43.60;5.70;;;6.60;99.90;;;;;;5073927;28;20545;-82
2021/10/16 04:51:13;;;;;;;42.53;5.03;;;6.60;99.90;;;;;;5071144;28;20474;-80
2021/10/16 04:53:40;;;;;;;44.57;5.47;;;6.60;99.90;;;;;;5076515;28;20978;-82
2021/10/16 04:56:07;;;;;;;38.27;4.63;;;6.50;99.90;;;;;;5074124;28;20452;-78
2021/10/16 04:58:34;;;;;;;41.93;5.33;;;6.50;99.90;;;;;;5080109;28;20458;-82
2021/10/16 05:01:01;;;;;;;44.13;5.60;;;6.50;99.90;;;;;;5080209;28;20466;-81
2021/10/16 05:03:28;;;;;;;42.63;5.53;;;6.50;99.90;;;;;;5079617;28;20962;-82
2021/10/16 05:05:56;;;;;;;41.63;5.10;;;6.50;99.90;;;;;;5080015;28;20454;-82
2021/10/16 05:08:23;;;;;;;57.47;7.53;;;6.50;99.90;;;;;;5078772;28;20829;-83
2021/10/16 05:10:50;;;;;;;46.87;6.33;;;6.50;99.90;;;;;;5080145;28;20467;-82
2021/10/16 05:13:17;;;;;;;43.13;5.93;;;6.50;99.90;;;;;;5096127;28;20810;-83
2021/10/16 05:15:44;;;;;;;45.23;5.40;;;6.50;99.90;;;;;;5080963;28;20458;-81
2021/10/16 05:18:10;;;;;;;46.53;6.20;;;6.50;99.90;;;;;;5078722;28;20485;-83
2021/10/16 05:20:37;;;;;;;37.87;5.00;;;6.40;99.90;;;;;;5078802;28;20474;-83
2021/10/16 05:23:06;;;;;;;44.70;5.60;;;6.40;99.90;;;;;;5079715;28;20450;-82
2021/10/16 05:25:33;;;;;;;41.03;5.90;;;6.50;99.90;;;;;;5079869;28;20517;-83
2021/10/16 05:28:00;;;;;;;46.40;5.77;;;6.40;99.90;;;;;;5079206;28;20450;-81
2021/10/16 05:30:27;;;;;;;43.03;6.03;;;6.40;99.90;;;;;;5098840;28;20453;-82
2021/10/16 05:32:54;;;;;;;40.00;4.83;;;6.40;99.90;;;;;;5092612;28;20453;-82
2021/10/16 05:35:22;;;;;;;43.00;5.53;;;6.50;99.90;;;;;;5080266;28;20460;-84
2021/10/16 05:37:49;;;;;;;41.73;6.90;;;6.50;99.90;;;;;;5080591;28;21078;-83
2021/10/16 05:40:18;;;;;;;45.93;6.07;;;6.50;99.90;;;;;;5083728;28;20534;-83
2021/10/16 05:42:45;;;;;;;44.03;6.50;;;6.50;99.90;;;;;;5078750;28;21025;-81
2021/10/16 05:45:12;;;;;;;45.33;6.03;;;6.60;99.90;;;;;;5085553;28;20477;-83
2021/10/16 05:47:41;;;;;;;44.30;6.40;;;6.60;99.90;;;;;;5102473;28;20446;-81
2021/10/16 05:50:09;;;;;;;45.67;6.47;;;6.60;99.90;;;;;;5099685;28;20461;-82
2021/10/16 05:52:37;;;;;;;45.73;6.20;;;6.70;99.90;;;;;;5099848;28;20468;-83
2021/10/16 05:55:04;;;;;;;36.30;5.50;;;6.70;99.90;;;;;;5099708;28;20468;-83
2021/10/16 05:57:32;;;;;;;39.93;6.10;;;6.70;99.90;;;;;;5096754;28;20493;-83
2021/10/16 05:59:59;;;;;;;39.40;5.70;;;6.70;99.90;;;;;;5072736;28;20481;-82
2021/10/16 06:02:26;;;;;;;41.00;6.57;;;6.80;99.90;;;;;;5073251;28;20485;-82
2021/10/16 06:04:53;;;;;;;36.70;6.40;;;6.80;99.90;;;;;;5077830;28;20430;-82
2021/10/16 06:07:20;;;;;;;39.93;5.70;;;6.80;99.90;;;;;;5075460;28;20443;-81
2021/10/16 06:09:50;;;;;;;47.30;7.60;;;6.90;99.90;;;;;;5073553;28;22444;-82
2021/10/16 06:12:21;;;;;;;37.30;5.90;;;6.90;99.90;;;;;;5071333;28;20474;-83
2021/10/16 06:14:52;;;;;;;39.40;5.40;;;7.00;99.90;;;;;;5076648;28;21196;-81
2021/10/16 06:17:19;;;;;;;35.53;5.27;;;7.00;99.90;;;;;;5072006;28;20486;-81
2021/10/16 06:19:46;;;;;;;36.63;5.93;;;7.10;99.90;;;;;;5078059;28;20457;-82
2021/10/16 06:22:13;;;;;;;36.57;6.43;;;7.20;99.90;;;;;;5079443;28;20517;-79
2021/10/16 06:24:39;;;;;;;39.63;6.90;;;7.20;99.90;;;;;;5073039;28;20455;-82
2021/10/16 06:27:06;;;;;;;40.37;5.43;;;7.30;99.90;;;;;;5078952;28;20454;-83
2021/10/16 06:29:33;;;;;;;40.93;5.83;;;7.30;99.90;;;;;;5078888;28;20537;-82
2021/10/16 06:32:01;;;;;;;36.60;6.13;;;7.40;99.90;;;;;;5075769;28;21015;-82
2021/10/16 06:34:28;;;;;;;35.33;6.20;;;7.40;99.90;;;;;;5074863;28;20447;-82
2021/10/16 06:36:55;;;;;;;35.40;6.00;;;7.50;99.90;;;;;;5074542;28;20523;-82
2021/10/16 06:39:22;;;;;;;35.43;5.17;;;7.50;99.90;;;;;;5071348;28;20456;-82
2021/10/16 06:41:48;;;;;;;37.73;6.23;;;7.60;99.90;;;;;;5077320;28;20474;-82
2021/10/16 06:44:16;;;;;;;38.63;6.10;;;7.60;99.90;;;;;;5077528;28;20543;-80
2021/10/16 06:46:43;;;;;;;40.90;6.70;;;7.70;99.90;;;;;;5075953;28;20459;-82
2021/10/16 06:49:11;;;;;;;36.77;5.70;;;7.70;99.90;;;;;;5071694;28;20494;-83
2021/10/16 06:51:42;;;;;;;37.00;5.97;;;7.70;99.90;;;;;;5074348;28;20475;-81
2021/10/16 06:54:10;;;;;;;36.23;6.53;;;7.80;99.90;;;;;;5075561;28;20477;-84
2021/10/16 06:56:37;;;;;;;33.27;6.30;;;7.90;99.90;;;;;;5076964;28;20744;-84
2021/10/16 06:59:03;;;;;;;39.57;6.77;;;7.90;99.90;;;;;;5065806;28;20859;-83
2021/10/16 07:01:30;;;;;;;39.20;6.50;;;7.90;99.90;;;;;;5059158;28;20483;-82
2021/10/16 07:03:57;;;;;;;38.93;6.20;;;8.10;99.90;;;;;;5076890;28;20451;-83
2021/10/16 07:06:25;;;;;;;34.80;5.50;;;8.10;99.90;;;;;;5074084;28;20459;-78
2021/10/16 07:08:52;;;;;;;35.47;6.83;;;8.20;99.90;;;;;;5074098;28;20460;-80
2021/10/16 07:15:23;;;;;;;32.23;6.67;;;8.20;99.90;;;;;;4999340;28;20538;-77
2021/10/16 07:17:50;;;;;;;35.13;5.70;;;8.30;99.90;;;;;;5002147;28;20514;-80
2021/10/16 07:20:17;;;;;;;36.20;6.93;;;8.30;99.90;;;;;;5061785;28;20523;-81
2021/10/16 07:22:45;;;;;;;29.63;6.60;;;8.40;99.90;;;;;;5065819;28;20447;-82
2021/10/16 07:25:12;;;;;;;34.37;6.90;;;8.40;99.90;;;;;;5062581;28;20961;-82
2021/10/16 07:27:41;;;;;;;34.73;6.23;;;8.50;99.90;;;;;;5064930;28;20440;-82
2021/10/16 07:30:13;;;;;;;30.70;5.53;;;8.60;99.90;;;;;;5064423;28;20452;-80
2021/10/16 07:32:41;;;;;;;32.67;6.30;;;8.70;99.90;;;;;;5061569;28;20462;-78
2021/10/16 07:35:08;;;;;;;32.50;6.40;;;8.90;99.90;;;;;;5050491;28;20530;-79
2021/10/16 07:37:35;;;;;;;30.97;6.30;;;9.00;99.90;;;;;;5056394;28;21191;-83
2021/10/16 07:40:04;;;;;;;32.90;6.03;;;9.10;99.90;;;;;;5057217;28;20480;-83
2021/10/16 07:42:31;;;;;;;36.33;7.43;;;9.20;99.90;;;;;;5060268;28;20474;-81
2021/10/16 07:44:57;;;;;;;30.17;7.60;;;9.40;99.90;;;;;;5065148;28;20456;-82
2021/10/16 07:47:27;;;;;;;27.93;7.10;;;9.50;99.90;;;;;;5058945;28;20453;-78
2021/10/16 07:50:05;;;;;;;32.07;8.80;;;9.60;99.90;;;;;;5065868;28;20457;-81
2021/10/16 07:56:04;;;;;;;40.97;10.70;;;9.90;99.90;;;;;;4854193;29;20456;-83
2021/10/16 07:58:31;;;;;;;40.20;9.73;;;10.00;99.90;;;;;;4981257;28;20503;-83
2021/10/16 08:00:58;;;;;;;38.20;8.63;;;10.20;99.90;;;;;;5057913;28;20471;-83
2021/10/16 08:03:25;;;;;;;39.17;9.43;;;10.30;99.90;;;;;;5057652;28;20483;-83
2021/10/16 08:05:52;;;;;;;40.73;7.90;;;10.40;99.90;;;;;;5058704;28;20456;-83
2021/10/16 08:08:18;;;;;;;42.50;7.50;;;10.50;99.90;;;;;;5057973;28;20835;-82
2021/10/16 08:10:45;;;;;;;36.10;6.60;;;10.60;99.90;;;;;;5057108;28;20483;-81
2021/10/16 08:13:13;;;;;;;33.80;7.13;;;10.70;99.90;;;;;;5057071;28;20969;-82
2021/10/16 08:15:40;;;;;;;41.70;8.37;;;10.90;99.90;;;;;;5057909;28;20468;-81
2021/10/16 08:18:07;;;;;;;39.17;7.90;;;10.90;99.90;;;;;;5057669;28;20572;-82
2021/10/16 08:20:34;;;;;;;35.57;7.90;;;11.10;99.90;;;;;;5057974;28;20475;-83
2021/10/16 08:23:04;;;;;;;40.97;8.87;;;11.10;99.90;;;;;;5057926;28;20541;-83
2021/10/16 08:25:31;;;;;;;37.33;8.40;;;11.20;99.90;;;;;;5060519;28;20454;-83
2021/10/16 08:27:58;;;;;;;45.70;8.97;;;11.30;99.90;;;;;;5060786;28;20477;-82
2021/10/16 08:30:27;;;;;;;37.70;6.77;;;11.40;99.90;;;;;;5060739;28;20492;-83
2021/10/16 08:32:53;;;;;;;42.40;7.53;;;11.40;99.90;;;;;;5061646;28;20448;-83
2021/10/16 08:35:20;;;;;;;32.40;8.33;;;11.50;99.90;;;;;;5060539;28;20463;-83
2021/10/16 08:37:47;;;;;;;32.60;8.23;;;11.50;99.90;;;;;;5059907;28;20492;-83
2021/10/16 08:40:14;;;;;;;34.70;7.80;;;11.70;99.90;;;;;;5059329;28;20479;-82
2021/10/16 08:42:41;;;;;;;37.70;7.80;;;11.60;99.90;;;;;;5060393;28;20457;-82
2021/10/16 08:45:13;;;;;;;39.63;7.07;;;11.70;99.90;;;;;;5061628;28;20518;-79
2021/10/16 08:47:42;;;;;;;33.60;6.43;;;11.80;99.90;;;;;;5061382;28;20458;-80
2021/10/16 08:50:11;;;;;;;34.80;6.67;;;12.00;99.90;;;;;;5060786;28;20451;-81
2021/10/16 08:52:39;;;;;;;37.83;7.03;;;12.10;99.90;;;;;;5064673;28;20553;-80
2021/10/16 08:55:08;;;;;;;33.00;8.03;;;12.00;99.90;;;;;;5062320;28;20466;-80
2021/10/16 08:57:41;;;;;;;34.70;7.17;;;12.00;99.90;;;;;;5062403;28;20458;-80
2021/10/16 09:00:42;;;;;;;30.20;7.37;;;12.20;99.90;;;;;;5060269;28;20458;-79
2021/10/16 09:03:19;;;;;;;31.87;7.33;;;12.40;99.90;;;;;;5068309;28;20450;-79
2021/10/16 09:06:09;;;;;;;28.67;7.03;;;12.60;99.90;;;;;;5064406;28;20515;-79
2021/10/16 09:08:38;;;;;;;36.70;6.70;;;12.70;99.90;;;;;;5059017;28;20461;-82
2021/10/16 09:11:29;;;;;;;30.00;6.77;;;12.80;99.90;;;;;;5059657;28;20563;-83
2021/10/16 09:14:02;;;;;;;30.13;6.40;;;12.80;99.90;;;;;;5059747;28;20968;-81
2021/10/16 09:16:32;;;;;;;40.03;7.00;;;13.00;99.90;;;;;;5059779;28;20540;-82
2021/10/16 09:19:20;;;;;;;37.50;5.23;;;13.10;99.90;;;;;;5059246;28;20476;-80
2021/10/16 09:21:53;;;;;;;28.90;4.40;;;13.30;99.90;;;;;;5059722;28;20667;-82
2021/10/16 09:24:23;;;;;;;31.57;4.00;;;13.30;99.90;;;;;;5059973;28;20458;-83
2021/10/16 09:26:51;;;;;;;31.33;5.03;;;13.40;99.90;;;;;;5060151;28;20456;-81
2021/10/16 09:29:20;;;;;;;29.60;5.50;;;13.30;99.90;;;;;;5058695;28;20525;-83
2021/10/16 09:31:49;;;;;;;29.67;4.23;;;13.40;99.90;;;;;;5051647;28;20896;-78
2021/10/16 09:34:28;;;;;;;26.90;3.73;;;13.50;99.90;;;;;;5058347;28;20495;-77
2021/10/16 09:37:03;;;;;;;29.87;2.73;;;13.50;99.90;;;;;;5055898;28;20522;-80
2021/10/16 09:39:30;;;;;;;28.43;4.73;;;13.60;99.90;;;;;;5059060;28;20505;-81
2021/10/16 09:41:57;;;;;;;31.10;3.90;;;13.40;99.90;;;;;;5050609;28;20547;-78
2021/10/16 09:44:28;;;;;;;31.33;4.23;;;13.40;99.90;;;;;;5051187;28;20461;-78
2021/10/16 09:47:01;;;;;;;26.83;3.50;;;13.50;99.90;;;;;;5059736;28;20463;-83
2021/10/16 09:49:38;;;;;;;28.37;3.97;;;13.60;99.90;;;;;;5056909;28;20462;-82
2021/10/16 09:52:06;;;;;;;33.17;5.23;;;13.60;99.90;;;;;;5059014;28;20557;-82
2021/10/16 09:54:35;;;;;;;28.30;4.00;;;13.60;99.90;;;;;;5059841;28;20450;-81
2021/10/16 09:57:06;;;;;;;31.87;4.10;;;13.80;99.90;;;;;;5058212;28;20460;-77
2021/10/16 09:59:34;;;;;;;25.70;4.03;;;14.00;99.90;;;;;;5057734;28;20481;-78
2021/10/16 10:02:05;;;;;;;26.23;2.77;;;14.00;99.90;;;;;;5058951;28;20464;-81
2021/10/16 10:04:37;;;;;;;27.53;3.27;;;14.00;99.90;;;;;;5059340;28;20971;-78
2021/10/16 10:07:04;;;;;;;28.80;3.20;;;14.00;99.90;;;;;;5058298;28;20491;-82
2021/10/16 10:09:33;;;;;;;27.77;3.40;;;13.90;99.90;;;;;;5055946;28;20526;-80
2021/10/16 10:12:01;;;;;;;30.90;3.40;;;13.80;99.90;;;;;;5056466;28;20472;-83
2021/10/16 10:14:28;;;;;;;27.10;4.07;;;13.80;99.90;;;;;;5056358;28;20468;-82
2021/10/16 10:16:59;;;;;;;28.73;3.27;;;13.80;99.90;;;;;;5055961;28;20951;-82
2021/10/16 10:19:28;;;;;;;24.13;3.17;;;13.70;99.90;;;;;;5056129;28;20882;-81
2021/10/16 10:21:59;;;;;;;26.53;2.87;;;13.60;99.90;;;;;;5055203;28;20479;-81
2021/10/16 10:24:37;;;;;;;25.30;3.63;;;13.60;99.90;;;;;;5055411;28;20447;-81
2021/10/16 10:27:07;;;;;;;22.83;3.30;;;13.60;99.90;;;;;;5055114;28;20465;-81
2021/10/16 10:29:36;;;;;;;26.63;3.43;;;13.60;99.90;;;;;;5054764;28;20456;-82
2021/10/16 10:32:06;;;;;;;27.93;2.97;;;13.60;99.90;;;;;;5057617;28;20941;-82
2021/10/16 10:34:35;;;;;;;23.47;2.83;;;13.50;99.90;;;;;;5068497;28;20539;-81
2021/10/16 10:37:08;;;;;;;24.10;3.03;;;13.60;99.90;;;;;;5054222;28;20530;-82
2021/10/16 10:39:53;;;;;;;25.60;2.80;;;13.60;99.90;;;;;;5057921;28;20919;-82
2021/10/16 10:42:46;;;;;;;25.43;3.30;;;13.60;99.90;;;;;;5063105;28;20475;-81
2021/10/16 10:45:40;;;;;;;25.67;2.90;;;13.60;99.90;;;;;;5068081;28;20537;-82
2021/10/16 10:48:10;;;;;;;22.43;2.37;;;13.60;99.90;;;;;;5056259;28;20448;-82
2021/10/16 10:50:52;;;;;;;30.33;2.83;;;13.70;99.90;;;;;;5055664;28;20467;-81
2021/10/16 10:53:30;;;;;;;22.70;2.60;;;13.80;99.90;;;;;;5055150;28;20458;-83
2021/10/16 10:55:58;;;;;;;25.77;2.60;;;13.90;99.90;;;;;;5055953;28;20532;-83
2021/10/16 10:59:00;;;;;;;22.10;2.90;;;14.00;99.90;;;;;;5055474;28;20479;-82
2021/10/16 11:02:05;;;;;;;25.83;2.13;;;14.00;99.90;;;;;;5070113;22;20477;-84
2021/10/16 11:04:36;;;;;;;28.63;2.40;;;14.20;99.90;;;;;;5042451;28;20985;-85
2021/10/16 11:07:05;;;;;;;27.70;2.60;;;14.40;99.90;;;;;;5059599;28;20459;-84
2021/10/16 11:09:34;;;;;;;26.20;2.57;;;14.40;99.90;;;;;;5061831;28;20472;-85
2021/10/16 11:12:01;;;;;;;28.83;2.33;;;14.80;99.90;;;;;;5060238;28;20470;-84
2021/10/16 11:14:32;;;;;;;28.00;2.70;;;15.30;99.90;;;;;;5055253;28;20482;-84
2021/10/16 11:17:01;;;;;;;33.70;2.50;;;15.90;99.90;;;;;;5045997;28;20519;-84
2021/10/16 11:19:29;;;;;;;30.40;2.20;;;16.60;99.90;;;;;;5028532;28;20872;-86
2021/10/16 11:21:57;;;;;;;26.07;2.63;;;16.70;99.90;;;;;;5042223;28;20492;-86
2021/10/16 11:24:25;;;;;;;30.63;2.80;;;16.50;99.90;;;;;;5041498;28;20459;-86
2021/10/16 11:26:58;;;;;;;27.13;2.63;;;16.10;99.90;;;;;;5040149;28;20462;-84
2021/10/16 11:29:29;;;;;;;28.63;2.73;;;15.70;99.90;;;;;;5041710;28;20455;-84
2021/10/16 11:32:15;;;;;;;27.87;2.53;;;15.40;99.90;;;;;;5040246;28;20480;-85
2021/10/16 11:34:54;;;;;;;29.47;2.63;;;15.30;99.90;;;;;;5042304;28;20444;-85
2021/10/16 11:37:37;;;;;;;30.03;2.30;;;15.00;99.90;;;;;;5041627;28;20445;-85
2021/10/16 11:40:06;;;;;;;29.00;2.17;;;14.70;99.90;;;;;;5041952;28;20472;-84
2021/10/16 11:42:36;;;;;;;27.87;2.30;;;14.50;99.90;;;;;;5043406;28;20483;-84
2021/10/16 11:45:04;;;;;;;27.37;2.13;;;14.30;99.90;;;;;;5042873;28;20485;-85
2021/10/16 11:47:31;;;;;;;26.37;2.40;;;14.20;99.90;;;;;;5042890;28;20548;-85
2021/10/16 11:50:11;;;;;;;24.77;2.47;;;14.00;99.90;;;;;;5040023;28;20488;-85
2021/10/16 11:52:38;;;;;;;25.80;2.63;;;13.80;99.90;;;;;;5022610;28;20480;-85
2021/10/16 11:55:11;;;;;;;30.13;3.47;;;13.80;99.90;;;;;;5022882;28;20456;-84
2021/10/16 11:57:40;;;;;;;24.43;2.57;;;13.70;99.90;;;;;;5038479;28;20491;-84
2021/10/16 12:00:18;;;;;;;28.30;3.60;;;13.70;99.90;;;;;;5040750;28;20480;-83
2021/10/16 12:02:45;;;;;;;32.40;3.03;;;13.80;99.90;;;;;;5042241;28;20493;-84
2021/10/16 12:05:13;;;;;;;38.63;4.33;;;13.90;99.90;;;;;;5043257;28;20480;-87
2021/10/16 12:07:40;;;;;;;32.43;4.17;;;13.90;99.90;;;;;;5044139;28;20451;-85
2021/10/16 12:10:37;;;;;;;31.50;3.80;;;14.00;99.90;;;;;;5045472;28;20449;-86
2021/10/16 12:13:10;;;;;;;27.70;3.60;;;14.10;99.90;;;;;;5042275;28;20551;-86
2021/10/16 12:15:41;;;;;;;37.90;3.70;;;14.20;99.90;;;;;;5044957;28;20460;-86
2021/10/16 12:18:21;;;;;;;34.53;3.70;;;14.50;99.90;;;;;;5045334;28;20526;-86
2021/10/16 12:20:51;;;;;;;39.30;3.77;;;14.50;99.90;;;;;;5044866;28;20441;-84
2021/10/16 12:23:18;;;;;;;37.83;3.70;;;14.40;99.90;;;;;;5044788;28;20460;-83
2021/10/16 12:25:51;;;;;;;41.00;3.97;;;14.30;99.90;;;;;;5044206;28;20516;-85
2021/10/16 12:28:19;;;;;;;40.07;3.90;;;14.40;99.90;;;;;;5043933;28;20543;-84
2021/10/16 12:31:00;;;;;;;34.17;3.20;;;14.30;99.90;;;;;;5044997;28;20473;-84
2021/10/16 12:33:27;;;;;;;32.43;2.60;;;14.30;99.90;;;;;;5044785;28;20566;-84
2021/10/16 12:36:02;;;;;;;38.30;4.30;;;14.40;99.90;;;;;;5045382;28;20463;-84
2021/10/16 12:38:45;;;;;;;34.23;3.50;;;14.40;99.90;;;;;;5042974;28;20454;-85
2021/10/16 12:41:22;;;;;;;31.03;3.47;;;14.40;99.90;;;;;;5040758;28;20456;-86
2021/10/16 12:43:50;;;;;;;32.57;3.10;;;14.40;99.90;;;;;;5045717;28;20835;-83
2021/10/16 12:46:27;;;;;;;32.47;3.17;;;14.30;99.90;;;;;;5043254;28;20528;-85
2021/10/16 12:48:55;;;;;;;35.20;2.90;;;14.30;99.90;;;;;;5044275;28;20457;-84
2021/10/16 12:51:39;;;;;;;30.73;3.13;;;14.30;99.90;;;;;;5046187;28;20499;-84
2021/10/16 12:54:06;;;;;;;26.30;2.80;;;15.40;99.90;;;;;;5037338;28;20821;-85
2021/10/16 12:56:32;;;;;;;25.97;2.70;;;16.60;99.90;;;;;;5044433;28;20454;-84
2021/10/16 12:59:02;;;;;;;21.20;3.43;;;17.00;99.90;;;;;;5045100;28;20494;-85
2021/10/16 13:01:29;;;;;;;22.13;2.50;;;17.10;99.90;;;;;;5045200;28;20460;-86